sensor_id;sensor_type;location;lat;lon;timestamp;P1;durP1;ratioP1;P2;durP2;ratioP2
74963;SDS011;63521;51.900;4.748;2023-07-31T00:00:55;4.60;;;2.10;;
74963;SDS011;63521;51.900;4.748;2023-07-31T00:03:20;7.93;;;2.47;;
74963;SDS011;63521;51.900;4.748;2023-07-31T00:05:46;5.82;;;2.35;;
74963;SDS011;63521;51.900;4.748;2023-07-31T00:08:11;3.88;;;1.70;;
74963;SDS011;63521;51.900;4.748;2023-07-31T00:10:37;4.70;;;1.75;;
74963;SDS011;63521;51.900;4.748;2023-07-31T00:13:02;5.35;;;1.90;;
74963;SDS011;63521;51.900;4.748;2023-07-31T00:15:27;5.22;;;1.88;;
74963;SDS011;63521;51.900;4.748;2023-07-31T00:17:53;6.80;;;2.10;;
74963;SDS011;63521;51.900;4.748;2023-07-31T00:20:18;5.88;;;1.88;;
74963;SDS011;63521;51.900;4.748;2023-07-31T00:22:44;8.60;;;2.00;;
74963;SDS011;63521;51.900;4.748;2023-07-31T00:25:09;5.55;;;1.92;;
74963;SDS011;63521;51.900;4.748;2023-07-31T00:27:35;5.63;;;2.05;;
74963;SDS011;63521;51.900;4.748;2023-07-31T00:30:00;5.43;;;2.15;;
74963;SDS011;63521;51.900;4.748;2023-07-31T00:32:25;7.55;;;2.17;;
74963;SDS011;63521;51.900;4.748;2023-07-31T00:34:51;6.50;;;2.17;;
74963;SDS011;63521;51.900;4.748;2023-07-31T00:37:17;6.40;;;1.80;;
74963;SDS011;63521;51.900;4.748;2023-07-31T00:39:42;5.65;;;2.17;;
74963;SDS011;63521;51.900;4.748;2023-07-31T00:42:08;10.15;;;3.80;;
74963;SDS011;63521;51.900;4.748;2023-07-31T00:44:33;6.90;;;2.35;;
74963;SDS011;63521;51.900;4.748;2023-07-31T00:46:59;6.78;;;2.28;;
74963;SDS011;63521;51.900;4.748;2023-07-31T00:49:25;6.78;;;2.10;;
74963;SDS011;63521;51.900;4.748;2023-07-31T00:51:51;7.00;;;2.22;;
74963;SDS011;63521;51.900;4.748;2023-07-31T00:54:17;9.27;;;2.30;;
74963;SDS011;63521;51.900;4.748;2023-07-31T00:56:42;3.92;;;2.10;;
74963;SDS011;63521;51.900;4.748;2023-07-31T00:59:10;5.78;;;2.08;;
74963;SDS011;63521;51.900;4.748;2023-07-31T01:01:35;7.60;;;2.30;;
74963;SDS011;63521;51.900;4.748;2023-07-31T01:04:01;8.93;;;3.05;;
74963;SDS011;63521;51.900;4.748;2023-07-31T01:06:31;5.50;;;2.33;;
74963;SDS011;63521;51.900;4.748;2023-07-31T01:09:17;8.07;;;2.38;;
74963;SDS011;63521;51.900;4.748;2023-07-31T01:11:48;6.32;;;2.38;;
74963;SDS011;63521;51.900;4.748;2023-07-31T01:14:17;7.00;;;2.45;;
74963;SDS011;63521;51.900;4.748;2023-07-31T01:16:43;5.68;;;2.20;;
74963;SDS011;63521;51.900;4.748;2023-07-31T01:19:08;6.22;;;2.40;;
74963;SDS011;63521;51.900;4.748;2023-07-31T01:21:41;8.45;;;2.60;;
74963;SDS011;63521;51.900;4.748;2023-07-31T01:27:06;7.85;;;2.40;;
74963;SDS011;63521;51.900;4.748;2023-07-31T01:29:40;6.70;;;2.40;;
74963;SDS011;63521;51.900;4.748;2023-07-31T01:32:10;5.78;;;2.03;;
74963;SDS011;63521;51.900;4.748;2023-07-31T01:34:36;4.60;;;2.00;;
74963;SDS011;63521;51.900;4.748;2023-07-31T01:37:02;6.05;;;2.47;;
74963;SDS011;63521;51.900;4.748;2023-07-31T01:39:28;6.00;;;2.53;;
74963;SDS011;63521;51.900;4.748;2023-07-31T01:41:53;3.20;;;1.88;;
74963;SDS011;63521;51.900;4.748;2023-07-31T01:44:18;7.78;;;2.83;;
74963;SDS011;63521;51.900;4.748;2023-07-31T01:46:44;4.55;;;1.88;;
74963;SDS011;63521;51.900;4.748;2023-07-31T01:49:09;5.20;;;2.03;;
74963;SDS011;63521;51.900;4.748;2023-07-31T01:51:35;7.15;;;2.65;;
74963;SDS011;63521;51.900;4.748;2023-07-31T01:54:00;5.88;;;2.00;;
74963;SDS011;63521;51.900;4.748;2023-07-31T01:56:26;6.25;;;2.20;;
74963;SDS011;63521;51.900;4.748;2023-07-31T01:58:52;5.22;;;2.45;;
74963;SDS011;63521;51.900;4.748;2023-07-31T02:01:17;5.40;;;2.25;;
74963;SDS011;63521;51.900;4.748;2023-07-31T02:03:42;5.18;;;2.00;;
74963;SDS011;63521;51.900;4.748;2023-07-31T02:06:08;6.18;;;2.05;;
74963;SDS011;63521;51.900;4.748;2023-07-31T02:08:33;6.30;;;2.22;;
74963;SDS011;63521;51.900;4.748;2023-07-31T02:10:59;10.30;;;2.42;;
74963;SDS011;63521;51.900;4.748;2023-07-31T02:13:24;5.38;;;2.28;;
74963;SDS011;63521;51.900;4.748;2023-07-31T02:15:49;6.70;;;2.35;;
74963;SDS011;63521;51.900;4.748;2023-07-31T02:18:15;4.05;;;1.92;;
74963;SDS011;63521;51.900;4.748;2023-07-31T02:20:41;5.18;;;2.03;;
74963;SDS011;63521;51.900;4.748;2023-07-31T02:23:06;7.18;;;2.20;;
74963;SDS011;63521;51.900;4.748;2023-07-31T02:25:32;6.68;;;2.35;;
74963;SDS011;63521;51.900;4.748;2023-07-31T02:27:57;7.03;;;2.28;;
74963;SDS011;63521;51.900;4.748;2023-07-31T02:30:22;5.20;;;2.17;;
74963;SDS011;63521;51.900;4.748;2023-07-31T02:32:48;5.35;;;2.00;;
74963;SDS011;63521;51.900;4.748;2023-07-31T02:35:13;5.00;;;2.20;;
74963;SDS011;63521;51.900;4.748;2023-07-31T02:37:40;5.15;;;2.40;;
74963;SDS011;63521;51.900;4.748;2023-07-31T02:40:07;5.93;;;2.42;;
74963;SDS011;63521;51.900;4.748;2023-07-31T02:42:32;4.85;;;2.30;;
74963;SDS011;63521;51.900;4.748;2023-07-31T02:44:58;8.18;;;2.83;;
74963;SDS011;63521;51.900;4.748;2023-07-31T02:47:23;5.75;;;2.15;;
74963;SDS011;63521;51.900;4.748;2023-07-31T02:49:49;4.80;;;2.20;;
74963;SDS011;63521;51.900;4.748;2023-07-31T02:52:14;7.05;;;2.40;;
74963;SDS011;63521;51.900;4.748;2023-07-31T02:54:39;5.03;;;2.25;;
74963;SDS011;63521;51.900;4.748;2023-07-31T02:57:05;6.05;;;2.83;;
74963;SDS011;63521;51.900;4.748;2023-07-31T02:59:30;5.13;;;2.00;;
74963;SDS011;63521;51.900;4.748;2023-07-31T03:01:56;5.70;;;2.47;;
74963;SDS011;63521;51.900;4.748;2023-07-31T03:04:21;8.00;;;2.42;;
74963;SDS011;63521;51.900;4.748;2023-07-31T03:06:46;7.18;;;2.42;;
74963;SDS011;63521;51.900;4.748;2023-07-31T03:09:12;8.20;;;2.40;;
74963;SDS011;63521;51.900;4.748;2023-07-31T03:11:37;5.75;;;2.95;;
74963;SDS011;63521;51.900;4.748;2023-07-31T03:14:03;6.40;;;2.42;;
74963;SDS011;63521;51.900;4.748;2023-07-31T03:16:28;5.65;;;2.20;;
74963;SDS011;63521;51.900;4.748;2023-07-31T03:18:54;4.78;;;2.17;;
74963;SDS011;63521;51.900;4.748;2023-07-31T03:21:19;5.25;;;2.10;;
74963;SDS011;63521;51.900;4.748;2023-07-31T03:23:44;8.10;;;2.40;;
74963;SDS011;63521;51.900;4.748;2023-07-31T03:26:10;6.40;;;2.60;;
74963;SDS011;63521;51.900;4.748;2023-07-31T03:28:36;5.57;;;2.60;;
74963;SDS011;63521;51.900;4.748;2023-07-31T03:31:01;4.75;;;2.20;;
74963;SDS011;63521;51.900;4.748;2023-07-31T03:33:27;4.53;;;2.25;;
74963;SDS011;63521;51.900;4.748;2023-07-31T03:35:52;5.50;;;2.28;;
74963;SDS011;63521;51.900;4.748;2023-07-31T03:38:18;7.18;;;2.30;;
74963;SDS011;63521;51.900;4.748;2023-07-31T03:40:43;7.90;;;2.58;;
74963;SDS011;63521;51.900;4.748;2023-07-31T03:43:09;6.38;;;2.30;;
74963;SDS011;63521;51.900;4.748;2023-07-31T03:45:34;6.28;;;2.53;;
74963;SDS011;63521;51.900;4.748;2023-07-31T03:48:00;4.88;;;1.88;;
74963;SDS011;63521;51.900;4.748;2023-07-31T03:50:25;6.13;;;2.50;;
74963;SDS011;63521;51.900;4.748;2023-07-31T03:52:51;5.95;;;2.55;;
74963;SDS011;63521;51.900;4.748;2023-07-31T03:55:16;5.80;;;2.50;;
74963;SDS011;63521;51.900;4.748;2023-07-31T03:57:43;4.63;;;2.30;;
74963;SDS011;63521;51.900;4.748;2023-07-31T04:00:08;5.50;;;2.80;;
74963;SDS011;63521;51.900;4.748;2023-07-31T04:02:34;6.03;;;2.15;;
74963;SDS011;63521;51.900;4.748;2023-07-31T04:05:00;4.32;;;2.35;;
74963;SDS011;63521;51.900;4.748;2023-07-31T04:07:25;7.10;;;2.60;;
74963;SDS011;63521;51.900;4.748;2023-07-31T04:09:50;4.25;;;2.40;;
74963;SDS011;63521;51.900;4.748;2023-07-31T04:12:16;4.13;;;2.33;;
74963;SDS011;63521;51.900;4.748;2023-07-31T04:14:41;6.85;;;2.70;;
74963;SDS011;63521;51.900;4.748;2023-07-31T04:17:06;5.22;;;2.30;;
74963;SDS011;63521;51.900;4.748;2023-07-31T04:19:32;5.53;;;2.58;;
74963;SDS011;63521;51.900;4.748;2023-07-31T04:21:57;3.90;;;2.05;;
74963;SDS011;63521;51.900;4.748;2023-07-31T04:24:23;5.80;;;2.70;;
74963;SDS011;63521;51.900;4.748;2023-07-31T04:26:52;5.28;;;2.72;;
74963;SDS011;63521;51.900;4.748;2023-07-31T04:29:17;4.90;;;2.30;;
74963;SDS011;63521;51.900;4.748;2023-07-31T04:31:43;4.45;;;2.28;;
74963;SDS011;63521;51.900;4.748;2023-07-31T04:34:08;5.57;;;2.30;;
74963;SDS011;63521;51.900;4.748;2023-07-31T04:36:34;5.63;;;2.15;;
74963;SDS011;63521;51.900;4.748;2023-07-31T04:39:00;5.43;;;2.95;;
74963;SDS011;63521;51.900;4.748;2023-07-31T04:41:26;6.30;;;2.33;;
74963;SDS011;63521;51.900;4.748;2023-07-31T04:43:51;4.97;;;2.38;;
74963;SDS011;63521;51.900;4.748;2023-07-31T04:46:17;4.85;;;2.15;;
74963;SDS011;63521;51.900;4.748;2023-07-31T04:48:42;4.60;;;2.60;;
74963;SDS011;63521;51.900;4.748;2023-07-31T04:51:08;5.15;;;2.78;;
74963;SDS011;63521;51.900;4.748;2023-07-31T04:53:34;5.47;;;2.58;;
74963;SDS011;63521;51.900;4.748;2023-07-31T04:56:00;6.93;;;2.50;;
74963;SDS011;63521;51.900;4.748;2023-07-31T04:58:25;3.60;;;2.20;;
74963;SDS011;63521;51.900;4.748;2023-07-31T05:00:51;5.95;;;2.22;;
74963;SDS011;63521;51.900;4.748;2023-07-31T05:03:16;4.60;;;1.83;;
74963;SDS011;63521;51.900;4.748;2023-07-31T05:05:41;3.38;;;2.05;;
74963;SDS011;63521;51.900;4.748;2023-07-31T05:08:07;5.53;;;2.03;;
74963;SDS011;63521;51.900;4.748;2023-07-31T05:10:32;5.47;;;2.00;;
74963;SDS011;63521;51.900;4.748;2023-07-31T05:12:57;3.45;;;1.77;;
74963;SDS011;63521;51.900;4.748;2023-07-31T05:15:23;4.25;;;2.08;;
74963;SDS011;63521;51.900;4.748;2023-07-31T05:17:48;4.57;;;2.17;;
74963;SDS011;63521;51.900;4.748;2023-07-31T05:20:14;4.40;;;2.03;;
74963;SDS011;63521;51.900;4.748;2023-07-31T05:22:40;5.20;;;2.00;;
74963;SDS011;63521;51.900;4.748;2023-07-31T05:25:05;3.53;;;2.03;;
74963;SDS011;63521;51.900;4.748;2023-07-31T05:27:31;4.38;;;2.30;;
74963;SDS011;63521;51.900;4.748;2023-07-31T05:29:57;4.88;;;2.67;;
74963;SDS011;63521;51.900;4.748;2023-07-31T05:32:23;3.55;;;1.90;;
74963;SDS011;63521;51.900;4.748;2023-07-31T05:34:50;4.22;;;2.10;;
74963;SDS011;63521;51.900;4.748;2023-07-31T05:37:17;3.53;;;1.90;;
74963;SDS011;63521;51.900;4.748;2023-07-31T05:39:42;3.92;;;2.25;;
74963;SDS011;63521;51.900;4.748;2023-07-31T05:42:07;5.05;;;2.25;;
74963;SDS011;63521;51.900;4.748;2023-07-31T05:44:33;3.75;;;1.80;;
74963;SDS011;63521;51.900;4.748;2023-07-31T05:47:08;5.93;;;2.03;;
74963;SDS011;63521;51.900;4.748;2023-07-31T05:50:01;4.40;;;2.17;;
74963;SDS011;63521;51.900;4.748;2023-07-31T05:52:36;3.95;;;1.95;;
74963;SDS011;63521;51.900;4.748;2023-07-31T05:55:01;4.50;;;1.67;;
74963;SDS011;63521;51.900;4.748;2023-07-31T05:57:58;3.90;;;2.00;;
74963;SDS011;63521;51.900;4.748;2023-07-31T06:00:40;2.92;;;1.70;;
74963;SDS011;63521;51.900;4.748;2023-07-31T06:03:06;5.00;;;1.70;;
74963;SDS011;63521;51.900;4.748;2023-07-31T06:05:31;3.83;;;1.65;;
74963;SDS011;63521;51.900;4.748;2023-07-31T06:07:57;2.92;;;1.65;;
74963;SDS011;63521;51.900;4.748;2023-07-31T06:10:22;4.07;;;1.70;;
74963;SDS011;63521;51.900;4.748;2023-07-31T06:12:47;3.67;;;1.80;;
74963;SDS011;63521;51.900;4.748;2023-07-31T06:15:13;3.70;;;1.60;;
74963;SDS011;63521;51.900;4.748;2023-07-31T06:17:38;4.07;;;1.90;;
74963;SDS011;63521;51.900;4.748;2023-07-31T06:20:05;4.22;;;1.77;;
74963;SDS011;63521;51.900;4.748;2023-07-31T06:22:31;4.40;;;1.80;;
74963;SDS011;63521;51.900;4.748;2023-07-31T06:24:57;4.95;;;1.90;;
74963;SDS011;63521;51.900;4.748;2023-07-31T06:27:23;2.88;;;1.70;;
74963;SDS011;63521;51.900;4.748;2023-07-31T06:29:48;2.80;;;1.70;;
74963;SDS011;63521;51.900;4.748;2023-07-31T06:32:13;3.92;;;1.77;;
74963;SDS011;63521;51.900;4.748;2023-07-31T06:34:39;3.05;;;1.70;;
74963;SDS011;63521;51.900;4.748;2023-07-31T06:37:04;3.63;;;1.70;;
74963;SDS011;63521;51.900;4.748;2023-07-31T06:39:30;2.80;;;1.60;;
74963;SDS011;63521;51.900;4.748;2023-07-31T06:41:55;3.45;;;2.00;;
74963;SDS011;63521;51.900;4.748;2023-07-31T06:44:20;2.75;;;1.55;;
74963;SDS011;63521;51.900;4.748;2023-07-31T06:46:46;1.58;;;1.20;;
74963;SDS011;63521;51.900;4.748;2023-07-31T06:49:11;2.80;;;1.80;;
74963;SDS011;63521;51.900;4.748;2023-07-31T06:51:37;3.47;;;1.40;;
74963;SDS011;63521;51.900;4.748;2023-07-31T06:54:03;5.75;;;1.80;;
74963;SDS011;63521;51.900;4.748;2023-07-31T06:56:28;1.95;;;1.50;;
74963;SDS011;63521;51.900;4.748;2023-07-31T06:58:54;2.50;;;1.58;;
74963;SDS011;63521;51.900;4.748;2023-07-31T07:01:20;2.22;;;1.40;;
74963;SDS011;63521;51.900;4.748;2023-07-31T07:03:46;2.80;;;1.67;;
74963;SDS011;63521;51.900;4.748;2023-07-31T07:06:12;2.60;;;1.35;;
74963;SDS011;63521;51.900;4.748;2023-07-31T07:08:37;3.15;;;1.50;;
74963;SDS011;63521;51.900;4.748;2023-07-31T07:11:02;3.15;;;1.60;;
74963;SDS011;63521;51.900;4.748;2023-07-31T07:13:28;2.05;;;1.30;;
74963;SDS011;63521;51.900;4.748;2023-07-31T07:15:54;3.42;;;1.48;;
74963;SDS011;63521;51.900;4.748;2023-07-31T07:18:19;1.67;;;1.23;;
74963;SDS011;63521;51.900;4.748;2023-07-31T07:20:52;1.73;;;1.52;;
74963;SDS011;63521;51.900;4.748;2023-07-31T07:23:19;2.63;;;1.48;;
74963;SDS011;63521;51.900;4.748;2023-07-31T07:25:45;1.85;;;1.15;;
74963;SDS011;63521;51.900;4.748;2023-07-31T07:28:11;2.95;;;1.30;;
74963;SDS011;63521;51.900;4.748;2023-07-31T07:30:37;2.10;;;1.35;;
74963;SDS011;63521;51.900;4.748;2023-07-31T07:33:03;2.05;;;1.13;;
74963;SDS011;63521;51.900;4.748;2023-07-31T07:35:28;2.92;;;1.30;;
74963;SDS011;63521;51.900;4.748;2023-07-31T07:37:53;1.65;;;1.10;;
74963;SDS011;63521;51.900;4.748;2023-07-31T07:40:19;2.90;;;1.35;;
74963;SDS011;63521;51.900;4.748;2023-07-31T07:42:45;2.03;;;1.20;;
74963;SDS011;63521;51.900;4.748;2023-07-31T07:45:10;1.95;;;1.13;;
74963;SDS011;63521;51.900;4.748;2023-07-31T07:47:36;1.13;;;1.02;;
74963;SDS011;63521;51.900;4.748;2023-07-31T07:50:02;2.53;;;1.10;;
74963;SDS011;63521;51.900;4.748;2023-07-31T07:52:28;1.98;;;1.10;;
74963;SDS011;63521;51.900;4.748;2023-07-31T07:54:53;1.58;;;1.17;;
74963;SDS011;63521;51.900;4.748;2023-07-31T07:57:18;1.65;;;1.15;;
74963;SDS011;63521;51.900;4.748;2023-07-31T07:59:44;1.98;;;1.05;;
74963;SDS011;63521;51.900;4.748;2023-07-31T08:02:09;1.80;;;1.00;;
74963;SDS011;63521;51.900;4.748;2023-07-31T08:04:35;1.90;;;1.30;;
74963;SDS011;63521;51.900;4.748;2023-07-31T08:07:00;2.17;;;1.10;;
74963;SDS011;63521;51.900;4.748;2023-07-31T08:09:25;1.17;;;1.00;;
74963;SDS011;63521;51.900;4.748;2023-07-31T08:11:51;0.88;;;0.82;;
74963;SDS011;63521;51.900;4.748;2023-07-31T08:14:16;1.38;;;1.27;;
74963;SDS011;63521;51.900;4.748;2023-07-31T08:16:42;0.95;;;0.85;;
74963;SDS011;63521;51.900;4.748;2023-07-31T08:19:07;1.00;;;0.90;;
74963;SDS011;63521;51.900;4.748;2023-07-31T08:21:33;1.67;;;1.00;;
74963;SDS011;63521;51.900;4.748;2023-07-31T08:23:58;1.10;;;0.90;;
74963;SDS011;63521;51.900;4.748;2023-07-31T08:26:23;1.77;;;1.00;;
74963;SDS011;63521;51.900;4.748;2023-07-31T08:28:49;1.30;;;1.00;;
74963;SDS011;63521;51.900;4.748;2023-07-31T08:31:14;1.58;;;1.00;;
74963;SDS011;63521;51.900;4.748;2023-07-31T08:33:40;2.20;;;0.98;;
74963;SDS011;63521;51.900;4.748;2023-07-31T08:36:05;1.17;;;0.90;;
74963;SDS011;63521;51.900;4.748;2023-07-31T08:38:31;1.63;;;1.10;;
74963;SDS011;63521;51.900;4.748;2023-07-31T08:40:57;1.23;;;1.10;;
74963;SDS011;63521;51.900;4.748;2023-07-31T08:43:22;1.25;;;0.90;;
74963;SDS011;63521;51.900;4.748;2023-07-31T08:45:50;1.30;;;0.90;;
74963;SDS011;63521;51.900;4.748;2023-07-31T08:48:16;1.20;;;1.10;;
74963;SDS011;63521;51.900;4.748;2023-07-31T08:50:42;2.17;;;1.00;;
74963;SDS011;63521;51.900;4.748;2023-07-31T08:53:08;1.00;;;0.90;;
74963;SDS011;63521;51.900;4.748;2023-07-31T08:55:33;1.10;;;1.00;;
74963;SDS011;63521;51.900;4.748;2023-07-31T08:57:58;2.05;;;1.20;;
74963;SDS011;63521;51.900;4.748;2023-07-31T09:00:24;1.05;;;0.90;;
74963;SDS011;63521;51.900;4.748;2023-07-31T09:03:02;2.22;;;1.10;;
74963;SDS011;63521;51.900;4.748;2023-07-31T09:05:30;1.52;;;1.10;;
74963;SDS011;63521;51.900;4.748;2023-07-31T09:07:56;1.00;;;1.00;;
74963;SDS011;63521;51.900;4.748;2023-07-31T09:10:22;1.95;;;1.70;;
74963;SDS011;63521;51.900;4.748;2023-07-31T09:12:48;1.20;;;1.10;;
74963;SDS011;63521;51.900;4.748;2023-07-31T09:15:15;1.65;;;1.02;;
74963;SDS011;63521;51.900;4.748;2023-07-31T09:17:41;1.33;;;1.00;;
74963;SDS011;63521;51.900;4.748;2023-07-31T09:22:42;1.20;;;1.10;;
74963;SDS011;63521;51.900;4.748;2023-07-31T09:30:13;1.80;;;1.40;;
74963;SDS011;63521;51.900;4.748;2023-07-31T09:32:39;1.45;;;1.10;;
74963;SDS011;63521;51.900;4.748;2023-07-31T09:37:50;2.60;;;1.30;;
74963;SDS011;63521;51.900;4.748;2023-07-31T09:40:26;1.52;;;1.15;;
74963;SDS011;63521;51.900;4.748;2023-07-31T09:43:02;1.65;;;1.30;;
74963;SDS011;63521;51.900;4.748;2023-07-31T09:45:29;1.50;;;1.35;;
74963;SDS011;63521;51.900;4.748;2023-07-31T09:47:55;2.13;;;1.30;;
74963;SDS011;63521;51.900;4.748;2023-07-31T09:50:22;2.00;;;1.45;;
74963;SDS011;63521;51.900;4.748;2023-07-31T09:52:49;1.63;;;1.40;;
74963;SDS011;63521;51.900;4.748;2023-07-31T09:55:14;1.60;;;1.50;;
74963;SDS011;63521;51.900;4.748;2023-07-31T09:57:41;2.63;;;1.33;;
74963;SDS011;63521;51.900;4.748;2023-07-31T10:00:08;1.63;;;1.25;;
74963;SDS011;63521;51.900;4.748;2023-07-31T10:02:34;1.48;;;1.13;;
74963;SDS011;63521;51.900;4.748;2023-07-31T10:05:01;1.80;;;1.27;;
74963;SDS011;63521;51.900;4.748;2023-07-31T10:07:28;1.35;;;1.20;;
74963;SDS011;63521;51.900;4.748;2023-07-31T10:09:55;2.40;;;1.42;;
74963;SDS011;63521;51.900;4.748;2023-07-31T10:12:22;2.08;;;1.40;;
74963;SDS011;63521;51.900;4.748;2023-07-31T10:14:51;2.05;;;1.30;;
74963;SDS011;63521;51.900;4.748;2023-07-31T10:17:17;1.75;;;1.30;;
74963;SDS011;63521;51.900;4.748;2023-07-31T10:19:43;1.90;;;1.42;;
74963;SDS011;63521;51.900;4.748;2023-07-31T10:22:09;1.80;;;1.40;;
74963;SDS011;63521;51.900;4.748;2023-07-31T10:24:34;1.95;;;1.42;;
74963;SDS011;63521;51.900;4.748;2023-07-31T10:27:01;1.65;;;1.40;;
74963;SDS011;63521;51.900;4.748;2023-07-31T10:36:39;2.05;;;1.30;;
74963;SDS011;63521;51.900;4.748;2023-07-31T10:43:59;1.20;;;1.10;;
74963;SDS011;63521;51.900;4.748;2023-07-31T10:51:36;1.70;;;1.30;;
74963;SDS011;63521;51.900;4.748;2023-07-31T11:03:05;1.30;;;1.20;;
74963;SDS011;63521;51.900;4.748;2023-07-31T11:05:42;1.63;;;1.52;;
74963;SDS011;63521;51.900;4.748;2023-07-31T11:08:14;1.55;;;1.20;;
74963;SDS011;63521;51.900;4.748;2023-07-31T11:10:48;2.67;;;1.42;;
74963;SDS011;63521;51.900;4.748;2023-07-31T11:13:26;2.17;;;1.48;;
74963;SDS011;63521;51.900;4.748;2023-07-31T11:15:51;3.42;;;1.40;;
74963;SDS011;63521;51.900;4.748;2023-07-31T11:18:17;2.00;;;1.10;;
74963;SDS011;63521;51.900;4.748;2023-07-31T11:20:43;1.88;;;1.50;;
74963;SDS011;63521;51.900;4.748;2023-07-31T11:23:09;2.20;;;1.50;;
74963;SDS011;63521;51.900;4.748;2023-07-31T11:25:35;2.33;;;1.50;;
74963;SDS011;63521;51.900;4.748;2023-07-31T11:28:03;1.70;;;1.25;;
74963;SDS011;63521;51.900;4.748;2023-07-31T11:30:29;2.53;;;1.38;;
74963;SDS011;63521;51.900;4.748;2023-07-31T11:32:55;1.33;;;1.23;;
74963;SDS011;63521;51.900;4.748;2023-07-31T11:35:20;1.75;;;1.42;;
74963;SDS011;63521;51.900;4.748;2023-07-31T11:37:47;1.95;;;1.75;;
74963;SDS011;63521;51.900;4.748;2023-07-31T11:40:13;1.63;;;1.50;;
74963;SDS011;63521;51.900;4.748;2023-07-31T11:42:39;1.45;;;1.30;;
74963;SDS011;63521;51.900;4.748;2023-07-31T11:45:05;2.20;;;1.75;;
74963;SDS011;63521;51.900;4.748;2023-07-31T11:47:34;1.60;;;1.50;;
74963;SDS011;63521;51.900;4.748;2023-07-31T11:50:01;1.55;;;1.40;;
74963;SDS011;63521;51.900;4.748;2023-07-31T11:52:30;2.22;;;1.20;;
74963;SDS011;63521;51.900;4.748;2023-07-31T11:54:59;1.70;;;1.60;;
74963;SDS011;63521;51.900;4.748;2023-07-31T11:57:25;2.28;;;1.40;;
74963;SDS011;63521;51.900;4.748;2023-07-31T11:59:51;1.95;;;1.45;;
74963;SDS011;63521;51.900;4.748;2023-07-31T12:02:17;1.60;;;1.35;;
74963;SDS011;63521;51.900;4.748;2023-07-31T12:04:43;2.50;;;1.30;;
74963;SDS011;63521;51.900;4.748;2023-07-31T12:07:08;1.85;;;1.50;;
74963;SDS011;63521;51.900;4.748;2023-07-31T12:09:34;1.40;;;1.30;;
74963;SDS011;63521;51.900;4.748;2023-07-31T12:11:59;1.48;;;1.38;;
74963;SDS011;63521;51.900;4.748;2023-07-31T12:14:25;1.88;;;1.35;;
74963;SDS011;63521;51.900;4.748;2023-07-31T12:16:54;1.35;;;1.23;;
74963;SDS011;63521;51.900;4.748;2023-07-31T12:19:24;2.20;;;1.40;;
74963;SDS011;63521;51.900;4.748;2023-07-31T12:21:55;2.05;;;1.30;;
74963;SDS011;63521;51.900;4.748;2023-07-31T12:24:21;1.45;;;1.27;;
74963;SDS011;63521;51.900;4.748;2023-07-31T12:26:47;1.80;;;1.40;;
74963;SDS011;63521;51.900;4.748;2023-07-31T12:29:13;1.70;;;1.33;;
74963;SDS011;63521;51.900;4.748;2023-07-31T12:31:40;1.75;;;1.20;;
74963;SDS011;63521;51.900;4.748;2023-07-31T12:34:14;1.63;;;1.20;;
74963;SDS011;63521;51.900;4.748;2023-07-31T12:36:40;1.20;;;1.10;;
74963;SDS011;63521;51.900;4.748;2023-07-31T12:39:07;2.13;;;1.30;;
74963;SDS011;63521;51.900;4.748;2023-07-31T12:41:33;1.83;;;1.38;;
74963;SDS011;63521;51.900;4.748;2023-07-31T12:43:58;1.75;;;1.30;;
74963;SDS011;63521;51.900;4.748;2023-07-31T12:46:23;1.65;;;1.30;;
74963;SDS011;63521;51.900;4.748;2023-07-31T12:48:49;1.25;;;1.10;;
74963;SDS011;63521;51.900;4.748;2023-07-31T12:51:14;1.70;;;1.20;;
74963;SDS011;63521;51.900;4.748;2023-07-31T12:53:40;1.35;;;1.10;;
74963;SDS011;63521;51.900;4.748;2023-07-31T12:56:05;1.52;;;1.38;;
74963;SDS011;63521;51.900;4.748;2023-07-31T12:58:30;1.58;;;1.30;;
74963;SDS011;63521;51.900;4.748;2023-07-31T13:00:56;1.73;;;1.25;;
74963;SDS011;63521;51.900;4.748;2023-07-31T13:03:21;1.20;;;1.10;;
74963;SDS011;63521;51.900;4.748;2023-07-31T13:05:48;1.38;;;1.13;;
74963;SDS011;63521;51.900;4.748;2023-07-31T13:08:13;1.10;;;1.00;;
74963;SDS011;63521;51.900;4.748;2023-07-31T13:10:40;1.35;;;1.05;;
74963;SDS011;63521;51.900;4.748;2023-07-31T13:13:06;1.08;;;1.00;;
74963;SDS011;63521;51.900;4.748;2023-07-31T13:15:31;1.55;;;1.42;;
74963;SDS011;63521;51.900;4.748;2023-07-31T13:17:57;1.17;;;1.10;;
74963;SDS011;63521;51.900;4.748;2023-07-31T13:20:22;1.40;;;1.05;;
74963;SDS011;63521;51.900;4.748;2023-07-31T13:22:47;1.50;;;1.10;;
74963;SDS011;63521;51.900;4.748;2023-07-31T13:25:13;1.27;;;0.90;;
74963;SDS011;63521;51.900;4.748;2023-07-31T13:27:38;1.10;;;1.02;;
74963;SDS011;63521;51.900;4.748;2023-07-31T13:30:04;1.17;;;1.08;;
74963;SDS011;63521;51.900;4.748;2023-07-31T13:32:30;1.20;;;1.10;;
74963;SDS011;63521;51.900;4.748;2023-07-31T13:34:55;2.03;;;1.10;;
74963;SDS011;63521;51.900;4.748;2023-07-31T13:37:20;1.45;;;1.08;;
74963;SDS011;63521;51.900;4.748;2023-07-31T13:39:46;1.10;;;1.00;;
74963;SDS011;63521;51.900;4.748;2023-07-31T13:42:11;0.90;;;0.90;;
74963;SDS011;63521;51.900;4.748;2023-07-31T13:44:40;1.30;;;1.20;;
74963;SDS011;63521;51.900;4.748;2023-07-31T13:47:07;1.23;;;1.10;;
74963;SDS011;63521;51.900;4.748;2023-07-31T13:49:33;1.00;;;0.90;;
74963;SDS011;63521;51.900;4.748;2023-07-31T13:51:59;0.90;;;0.90;;
74963;SDS011;63521;51.900;4.748;2023-07-31T13:54:24;1.17;;;1.02;;
74963;SDS011;63521;51.900;4.748;2023-07-31T13:56:51;0.80;;;0.77;;
74963;SDS011;63521;51.900;4.748;2023-07-31T13:59:16;2.42;;;1.20;;
74963;SDS011;63521;51.900;4.748;2023-07-31T14:01:42;0.98;;;0.98;;
74963;SDS011;63521;51.900;4.748;2023-07-31T14:04:08;1.10;;;0.90;;
74963;SDS011;63521;51.900;4.748;2023-07-31T14:06:33;1.42;;;0.98;;
74963;SDS011;63521;51.900;4.748;2023-07-31T14:08:59;1.20;;;1.02;;
74963;SDS011;63521;51.900;4.748;2023-07-31T14:11:24;0.90;;;0.80;;
74963;SDS011;63521;51.900;4.748;2023-07-31T14:13:50;1.05;;;0.95;;
74963;SDS011;63521;51.900;4.748;2023-07-31T14:16:16;1.25;;;1.10;;
74963;SDS011;63521;51.900;4.748;2023-07-31T14:18:42;1.23;;;1.13;;
74963;SDS011;63521;51.900;4.748;2023-07-31T14:21:07;1.10;;;1.00;;
74963;SDS011;63521;51.900;4.748;2023-07-31T14:23:33;1.08;;;0.98;;
74963;SDS011;63521;51.900;4.748;2023-07-31T14:25:59;1.35;;;1.20;;
74963;SDS011;63521;51.900;4.748;2023-07-31T14:28:24;1.15;;;1.05;;
74963;SDS011;63521;51.900;4.748;2023-07-31T14:30:49;1.42;;;1.10;;
74963;SDS011;63521;51.900;4.748;2023-07-31T14:33:15;1.15;;;1.05;;
74963;SDS011;63521;51.900;4.748;2023-07-31T14:35:40;1.73;;;1.00;;
74963;SDS011;63521;51.900;4.748;2023-07-31T14:38:06;1.10;;;1.05;;
74963;SDS011;63521;51.900;4.748;2023-07-31T14:40:31;1.20;;;1.02;;
74963;SDS011;63521;51.900;4.748;2023-07-31T14:42:57;1.38;;;1.27;;
74963;SDS011;63521;51.900;4.748;2023-07-31T14:45:22;1.67;;;1.20;;
74963;SDS011;63521;51.900;4.748;2023-07-31T14:47:47;1.25;;;1.15;;
74963;SDS011;63521;51.900;4.748;2023-07-31T14:50:13;1.55;;;1.20;;
74963;SDS011;63521;51.900;4.748;2023-07-31T14:52:38;1.50;;;1.23;;
74963;SDS011;63521;51.900;4.748;2023-07-31T14:55:04;4.88;;;1.60;;
74963;SDS011;63521;51.900;4.748;2023-07-31T14:57:30;2.17;;;1.60;;
74963;SDS011;63521;51.900;4.748;2023-07-31T14:59:55;1.77;;;1.25;;
74963;SDS011;63521;51.900;4.748;2023-07-31T15:02:20;2.28;;;1.55;;
74963;SDS011;63521;51.900;4.748;2023-07-31T15:04:46;1.40;;;1.30;;
74963;SDS011;63521;51.900;4.748;2023-07-31T15:07:12;1.42;;;1.20;;
74963;SDS011;63521;51.900;4.748;2023-07-31T15:09:38;2.03;;;1.50;;
74963;SDS011;63521;51.900;4.748;2023-07-31T15:12:04;1.50;;;1.40;;
74963;SDS011;63521;51.900;4.748;2023-07-31T15:14:30;2.05;;;1.40;;
74963;SDS011;63521;51.900;4.748;2023-07-31T15:16:56;1.23;;;1.13;;
74963;SDS011;63521;51.900;4.748;2023-07-31T15:19:21;1.33;;;1.23;;
74963;SDS011;63521;51.900;4.748;2023-07-31T15:21:48;3.00;;;1.30;;